Terminal Aerodrome Forecast
Issued by NWS

Home | Current Version | Previous Version | Text Only | Print | Product List | Glossary On
Versions: 1 2 3 4 5 6 7 8 9 10 11 12 13 14
781
FTUS43 KMQT 241120
TAFIWD
TAF
KIWD 241120Z 2412/2512 13008KT P6SM BKN140
     FM241700 16011G19KT P6SM BKN150
     FM250100 16010KT P6SM BKN090
     FM250500 17009KT P6SM VCSH OVC070
     FM250600 17010KT P6SM OVC070=

USA.gov is the U.S. government's official web portal to all federal, state and local government web resources and services.